createdAt,value
2023-07-29T11:04:33.359Z,27.39
2023-07-29T11:07:53.207Z,27.01
2023-07-29T11:11:08.152Z,27.07
2023-07-29T11:14:16.292Z,27.30
2023-07-29T11:17:23.755Z,27.17
2023-07-29T11:20:35.244Z,26.57
2023-07-29T11:23:42.239Z,26.64
2023-07-29T11:26:51.712Z,26.60
2023-07-29T11:30:05.403Z,27.21
2023-07-29T11:33:12.622Z,27.54
2023-07-29T11:36:27.359Z,27.71
2023-07-29T11:39:34.283Z,27.60
2023-07-29T11:42:41.875Z,27.24
2023-07-29T11:45:52.070Z,27.31
2023-07-29T11:48:59.461Z,27.55
2023-07-29T11:52:12.666Z,27.77
2023-07-29T11:55:21.368Z,27.57
2023-07-29T11:58:30.611Z,28.00
2023-07-29T12:01:40.291Z,28.04
2023-07-29T12:04:52.537Z,28.16
2023-07-29T12:08:03.081Z,28.60
2023-07-29T12:11:13.277Z,27.55
2023-07-29T12:14:21.542Z,27.35
2023-07-29T12:17:29.824Z,27.10
2023-07-29T12:20:37.915Z,26.99
2023-07-29T12:24:21.759Z,25.49
2023-07-29T12:27:35.602Z,25.56
2023-07-29T12:30:46.894Z,26.57
2023-07-29T12:34:01.059Z,27.17
2023-07-29T12:37:12.317Z,27.22
2023-07-29T12:40:33.469Z,26.80
2023-07-29T12:43:42.189Z,26.21
2023-07-29T12:46:54.891Z,25.92
2023-07-29T12:50:03.614Z,26.14
2023-07-29T12:53:14.542Z,26.03
2023-07-29T12:56:25.999Z,26.11
2023-07-29T12:59:35.481Z,26.04
2023-07-29T13:02:44.653Z,26.01
2023-07-29T13:05:54.053Z,25.91
2023-07-29T13:09:03.049Z,25.99
2023-07-29T13:12:15.000Z,26.02
2023-07-29T13:15:24.784Z,26.17
2023-07-29T13:18:34.919Z,26.28
2023-07-29T13:21:43.630Z,26.10
2023-07-29T13:24:53.286Z,26.11
2023-07-29T13:28:04.388Z,25.79
2023-07-29T13:31:14.402Z,25.19
2023-07-29T13:34:23.083Z,25.15
2023-07-29T13:37:32.495Z,25.16
2023-07-29T13:40:41.052Z,25.31
2023-07-29T13:43:53.254Z,25.61
2023-07-29T13:47:01.689Z,25.62
2023-07-29T13:50:13.374Z,25.52
2023-07-29T13:53:22.932Z,25.41
2023-07-29T13:56:32.151Z,25.66
2023-07-29T13:59:43.335Z,25.72
2023-07-29T14:02:52.619Z,25.91
2023-07-29T14:06:01.237Z,25.94
2023-07-29T14:09:10.893Z,25.86
2023-07-29T14:12:22.250Z,25.97
2023-07-29T14:15:34.315Z,25.92
2023-07-29T14:18:43.077Z,25.63
2023-07-29T14:21:53.450Z,25.04
2023-07-29T14:25:01.934Z,24.85
2023-07-29T14:28:11.490Z,24.94
2023-07-29T14:31:23.851Z,25.20
2023-07-29T14:34:33.515Z,25.22
2023-07-29T14:37:41.899Z,25.14
2023-07-29T14:40:54.940Z,25.15
2023-07-29T14:44:03.620Z,25.12
2023-07-29T14:47:15.478Z,24.92
2023-07-29T14:50:23.923Z,24.98
2023-07-29T14:53:33.104Z,25.03
2023-07-29T14:56:41.678Z,24.90
2023-07-29T14:59:50.843Z,25.13
2023-07-29T15:03:07.997Z,25.03
2023-07-29T15:06:17.487Z,24.75
2023-07-29T15:09:27.995Z,24.66
2023-07-29T15:12:37.281Z,24.84
2023-07-29T15:15:46.960Z,25.10
2023-07-29T15:18:59.090Z,24.88
2023-07-29T15:22:07.902Z,25.14
2023-07-29T15:25:17.195Z,24.98
2023-07-29T15:28:28.734Z,24.93
2023-07-29T15:31:39.592Z,25.04
2023-07-29T15:34:50.905Z,25.04
2023-07-29T15:38:00.180Z,25.03
2023-07-29T15:41:10.285Z,24.89
2023-07-29T15:44:19.524Z,24.73
2023-07-29T15:47:28.413Z,24.57
2023-07-29T15:50:40.752Z,24.56
2023-07-29T15:53:49.397Z,24.29
2023-07-29T15:56:58.700Z,24.06
2023-07-29T16:00:08.951Z,23.93
2023-07-29T16:03:21.167Z,23.96
2023-07-29T16:06:35.398Z,23.82
2023-07-29T16:09:44.895Z,23.85
2023-07-29T16:12:53.315Z,23.75
2023-07-29T16:16:02.774Z,23.59
2023-07-29T16:19:11.387Z,23.48
2023-07-29T16:22:23.186Z,23.29
2023-07-29T16:25:31.656Z,23.15
2023-07-29T16:28:42.622Z,22.97
2023-07-29T16:31:53.299Z,23.00
2023-07-29T16:35:03.183Z,22.92
2023-07-29T16:38:14.434Z,22.84
2023-07-29T16:42:01.837Z,22.65
2023-07-29T16:44:56.234Z,22.83
2023-07-29T16:48:05.830Z,22.79
2023-07-29T16:51:14.238Z,22.70
2023-07-29T16:54:26.086Z,22.68
2023-07-29T16:57:34.913Z,22.76
2023-07-29T17:00:44.337Z,22.89
2023-07-29T17:03:53.428Z,22.86
2023-07-29T17:07:08.994Z,22.71
2023-07-29T17:13:27.398Z,22.72
2023-07-29T17:16:37.098Z,22.71
2023-07-29T17:19:46.098Z,22.58
2023-07-29T17:22:56.236Z,22.41
2023-07-29T17:26:05.902Z,22.39
2023-07-29T17:29:17.860Z,22.04
2023-07-29T17:32:26.450Z,21.86
2023-07-29T17:35:36.083Z,21.62
2023-07-29T17:38:45.139Z,21.39
2023-07-29T17:41:54.420Z,21.22
2023-07-29T17:45:05.797Z,20.97
2023-07-29T17:48:15.177Z,20.75
2023-07-29T17:51:25.960Z,20.51
2023-07-29T17:54:35.606Z,20.39
2023-07-29T17:57:44.008Z,20.23
2023-07-29T18:00:57.817Z,20.28
2023-07-29T18:04:06.231Z,20.21
2023-07-29T18:07:15.494Z,20.19
2023-07-29T18:10:25.436Z,20.13
2023-07-29T18:13:35.580Z,20.14
2023-07-29T18:18:28.263Z,20.12
2023-07-29T18:22:55.710Z,20.09
2023-07-29T18:29:16.459Z,19.81
2023-07-29T18:32:26.060Z,19.68
2023-07-29T18:35:34.691Z,19.48
2023-07-29T18:38:43.834Z,19.42
2023-07-29T18:44:17.927Z,19.25
2023-07-29T18:47:27.384Z,19.18
2023-07-29T18:52:23.849Z,19.13
2023-07-29T18:55:33.233Z,19.12
2023-07-29T18:58:41.526Z,19.03
